createdAt,value
2023-05-14T00:00:58.488Z,100249.28
2023-05-14T00:02:00.737Z,100249.28
2023-05-14T00:03:02.968Z,100250.16
2023-05-14T00:04:05.762Z,100245.72
2023-05-14T00:05:09.267Z,100254.59
2023-05-14T00:06:11.497Z,100251.03
2023-05-14T00:07:13.687Z,100259.06
2023-05-14T00:08:15.735Z,100256.47
2023-05-14T00:09:18.164Z,100260.84
2023-05-14T00:10:22.381Z,100259.13
2023-05-14T00:11:24.884Z,100256.50
2023-05-14T00:12:27.428Z,100261.91
2023-05-14T00:13:29.508Z,100261.09
2023-05-14T00:14:31.782Z,100262.94
2023-05-14T00:15:34.480Z,100264.72
2023-05-14T00:16:36.948Z,100259.50
2023-05-14T00:17:39.194Z,100261.34
2023-05-14T00:18:41.364Z,100264.94
2023-05-14T00:19:43.472Z,100258.75
2023-05-14T00:20:45.605Z,100260.59
2023-05-14T00:21:48.687Z,100259.84
2023-05-14T00:22:50.934Z,100264.34
2023-05-14T00:23:52.939Z,100266.19
2023-05-14T00:24:55.036Z,100264.50
2023-05-14T00:25:57.141Z,100271.69
2023-05-14T00:26:59.318Z,100273.59
2023-05-14T00:28:01.478Z,100276.38
2023-05-14T00:29:03.624Z,100269.50
2023-05-14T00:30:07.344Z,100260.72
2023-05-14T00:31:10.365Z,100266.06
2023-05-14T00:32:12.364Z,100267.00
2023-05-14T00:33:14.427Z,100266.19
2023-05-14T00:34:16.413Z,100268.06
2023-05-14T00:35:18.642Z,100264.59
2023-05-14T00:36:20.658Z,100269.06
2023-05-14T00:37:22.692Z,100271.81
2023-05-14T00:38:27.836Z,100274.59
2023-05-14T00:39:30.020Z,100276.44
2023-05-14T00:41:55.432Z,100280.94
2023-05-14T00:42:57.742Z,100276.56
2023-05-14T00:43:59.775Z,100280.97
2023-05-14T00:45:01.744Z,100280.97
2023-05-14T00:46:04.052Z,100284.53
2023-05-14T00:47:06.367Z,100277.53
2023-05-14T00:48:08.434Z,100278.41
2023-05-14T00:49:10.979Z,100294.38
2023-05-14T00:50:14.447Z,100285.66
2023-05-14T00:51:17.730Z,100290.06
2023-05-14T00:52:20.638Z,100282.22
2023-05-14T00:53:22.767Z,100294.56
2023-05-14T00:54:25.275Z,100290.19
2023-05-14T00:55:30.378Z,100297.22
2023-05-14T00:56:32.373Z,100287.53
2023-05-14T00:57:36.400Z,100300.78
2023-05-14T00:58:38.346Z,100291.94
2023-05-14T00:59:41.968Z,100288.41
2023-05-14T01:00:43.934Z,100295.47
2023-05-14T01:01:45.858Z,100301.59
2023-05-14T01:02:47.818Z,100299.78
2023-05-14T01:03:50.117Z,100300.69
2023-05-14T01:04:53.621Z,100300.69
2023-05-14T01:06:13.580Z,100305.88
2023-05-14T01:07:27.838Z,100304.94
2023-05-14T01:08:50.878Z,100313.78
2023-05-14T01:10:01.745Z,100311.22
2023-05-14T01:11:12.896Z,100304.19
2023-05-14T01:12:14.616Z,100309.50
2023-05-14T01:13:27.842Z,100316.50
2023-05-14T01:14:44.864Z,100312.84
2023-05-14T01:15:47.784Z,100316.44
2023-05-14T01:16:56.811Z,100313.72
2023-05-14T01:18:10.144Z,100320.66
2023-05-14T01:19:30.047Z,100318.84
2023-05-14T01:20:31.975Z,100314.47
2023-05-14T01:21:40.515Z,100311.75
2023-05-14T01:22:42.738Z,100325.88
2023-05-14T01:23:44.552Z,100313.56
2023-05-14T01:24:46.725Z,100318.84
2023-05-14T01:25:48.652Z,100324.09
2023-05-14T01:26:50.807Z,100318.88
2023-05-14T01:28:11.210Z,100315.28
2023-05-14T01:29:23.748Z,100323.19
2023-05-14T01:30:45.657Z,100317.81
2023-05-14T01:31:49.100Z,100318.75
2023-05-14T01:32:56.638Z,100326.63
2023-05-14T01:34:00.412Z,100331.09
2023-05-14T01:35:03.288Z,100320.34
2023-05-14T01:36:07.028Z,100320.47
2023-05-14T01:37:12.728Z,100327.47
2023-05-14T01:38:19.077Z,100322.25
2023-05-14T01:39:21.540Z,100327.50
2023-05-14T01:40:24.455Z,100318.63
2023-05-14T01:41:27.458Z,100311.56
2023-05-14T01:42:30.427Z,100317.69
2023-05-14T01:43:32.686Z,100322.84
2023-05-14T01:44:34.989Z,100316.50
2023-05-14T01:45:37.413Z,100327.03
2023-05-14T01:46:39.384Z,100321.66
2023-05-14T01:47:41.551Z,100325.97
2023-05-14T01:48:43.409Z,100327.72
2023-05-14T01:49:45.431Z,100319.78
2023-05-14T01:50:47.437Z,100325.84
2023-05-14T01:51:49.309Z,100326.66
2023-05-14T01:52:53.600Z,100318.69
2023-05-14T01:53:55.532Z,100325.72
2023-05-14T01:54:58.664Z,100327.53
2023-05-14T01:56:00.674Z,100323.16
2023-05-14T01:57:02.630Z,100317.88
2023-05-14T01:58:04.571Z,100319.66
2023-05-14T01:59:06.550Z,100316.91
2023-05-14T02:00:09.561Z,100327.41
2023-05-14T02:01:11.519Z,100319.44
2023-05-14T02:02:13.534Z,100316.75
2023-05-14T02:03:15.457Z,100318.53
2023-05-14T02:04:17.580Z,100314.09
2023-05-14T02:05:19.687Z,100318.47
2023-05-14T02:06:21.548Z,100320.19
2023-05-14T02:07:23.533Z,100320.97
2023-05-14T02:08:25.480Z,100323.53
2023-05-14T02:09:27.476Z,100322.69
2023-05-14T02:10:29.567Z,100322.69
2023-05-14T02:11:31.685Z,100319.22
2023-05-14T02:12:33.527Z,100322.69
2023-05-14T02:13:36.736Z,100325.50
2023-05-14T02:14:38.950Z,100323.63
2023-05-14T02:15:41.255Z,100326.03
2023-05-14T02:16:43.205Z,100326.53
2023-05-14T02:17:45.823Z,100326.81
2023-05-14T02:18:47.796Z,100325.34
2023-05-14T02:19:49.893Z,100321.22
2023-05-14T02:20:51.809Z,100333.16
2023-05-14T02:21:53.660Z,100319.59
2023-05-14T02:22:55.497Z,100329.50
2023-05-14T02:23:57.506Z,100325.13
2023-05-14T02:24:59.364Z,100325.50
2023-05-14T02:26:01.348Z,100327.59
2023-05-14T02:27:03.479Z,100329.56
2023-05-14T02:28:05.609Z,100330.63
2023-05-14T02:29:07.543Z,100329.97
2023-05-14T02:30:10.430Z,100332.81
2023-05-14T02:31:12.840Z,100332.00
2023-05-14T02:32:14.822Z,100334.66
2023-05-14T02:33:16.860Z,100324.97
2023-05-14T02:34:19.186Z,100332.94
2023-05-14T02:35:21.220Z,100330.28
2023-05-14T02:36:23.130Z,100323.13
2023-05-14T02:37:24.934Z,100331.84
2023-05-14T02:38:26.897Z,100332.69
2023-05-14T02:39:28.750Z,100331.84
2023-05-14T02:40:30.710Z,100331.88
2023-05-14T02:41:32.666Z,100331.09
2023-05-14T02:42:35.809Z,100337.31
2023-05-14T02:43:37.723Z,100329.22
2023-05-14T02:44:39.603Z,100334.63
2023-05-14T02:45:41.523Z,100334.63
2023-05-14T02:46:43.655Z,100336.22
2023-05-14T02:47:46.195Z,100342.41
2023-05-14T02:48:48.143Z,100337.91
2023-05-14T02:49:50.223Z,100346.63
2023-05-14T02:50:52.352Z,100340.38
2023-05-14T02:51:54.562Z,100336.84
2023-05-14T02:52:56.598Z,100342.03
2023-05-14T02:53:58.535Z,100337.53
2023-05-14T02:55:00.474Z,100339.25
2023-05-14T02:56:02.508Z,100344.53
2023-05-14T02:57:04.550Z,100348.75
2023-05-14T02:58:06.367Z,100351.66
2023-05-14T02:59:08.306Z,100349.88
2023-05-14T03:00:11.481Z,100348.88
2023-05-14T03:01:14.082Z,100348.25
2023-05-14T03:02:16.270Z,100350.94
2023-05-14T03:03:19.774Z,100357.25
2023-05-14T03:04:22.102Z,100359.97
2023-05-14T03:05:24.096Z,100352.19
2023-05-14T03:06:26.014Z,100350.72
2023-05-14T03:07:27.930Z,100354.56
2023-05-14T03:08:29.733Z,100355.81
2023-05-14T03:09:31.720Z,100362.19
2023-05-14T03:10:33.509Z,100365.06
2023-05-14T03:11:35.818Z,100365.91
2023-05-14T03:12:37.797Z,100362.41
2023-05-14T03:13:39.805Z,100357.94
2023-05-14T03:14:41.789Z,100368.59
2023-05-14T03:15:44.627Z,100366.88
2023-05-14T03:16:46.542Z,100367.81
2023-05-14T03:17:48.510Z,100375.69
2023-05-14T03:18:50.519Z,100372.44
2023-05-14T03:19:52.536Z,100374.56
2023-05-14T03:20:54.420Z,100368.41
2023-05-14T03:21:56.455Z,100370.97
2023-05-14T03:22:58.745Z,100379.97
2023-05-14T03:24:00.790Z,100378.19
2023-05-14T03:25:02.573Z,100374.66
2023-05-14T03:26:07.222Z,100372.91
2023-05-14T03:27:09.134Z,100379.09
2023-05-14T03:28:11.050Z,100377.44
2023-05-14T03:29:12.914Z,100375.56
2023-05-14T03:30:14.854Z,100374.84
2023-05-14T03:31:16.800Z,100377.63
2023-05-14T03:32:19.544Z,100384.56
2023-05-14T03:33:21.532Z,100376.59
2023-05-14T03:34:23.716Z,100383.53
2023-05-14T03:35:25.696Z,100384.28
2023-05-14T03:36:27.699Z,100387.00
2023-05-14T03:37:29.780Z,100385.19
2023-05-14T03:38:31.746Z,100390.59
2023-05-14T03:39:33.793Z,100388.09
2023-05-14T03:40:35.721Z,100396.09
2023-05-14T03:41:37.902Z,100392.00
2023-05-14T03:42:39.919Z,100400.13
2023-05-14T03:43:41.801Z,100398.59
2023-05-14T03:44:43.908Z,100399.69
2023-05-14T03:45:45.886Z,100398.91
2023-05-14T03:46:47.997Z,100397.44
2023-05-14T03:47:50.009Z,100404.72
2023-05-14T03:48:52.048Z,100400.44
2023-05-14T03:49:53.981Z,100404.31
2023-05-14T03:50:55.996Z,100392.13
2023-05-14T03:51:59.557Z,100398.44
2023-05-14T03:53:01.616Z,100403.81
2023-05-14T03:54:03.688Z,100401.97
2023-05-14T03:55:06.114Z,100401.28
2023-05-14T03:56:08.075Z,100407.50
2023-05-14T03:57:10.205Z,100404.22
2023-05-14T03:58:14.310Z,100411.34
2023-05-14T03:59:16.484Z,100400.78
2023-05-14T04:00:18.520Z,100403.44
2023-05-14T04:01:20.561Z,100414.19
2023-05-14T04:02:22.475Z,100414.19
2023-05-14T04:03:24.672Z,100404.41
2023-05-14T04:04:26.583Z,100421.13
2023-05-14T04:05:28.586Z,100414.91
2023-05-14T04:06:31.225Z,100418.38
2023-05-14T04:07:33.227Z,100419.19
2023-05-14T04:08:35.047Z,100421.84
2023-05-14T04:09:37.028Z,100418.25
2023-05-14T04:10:38.940Z,100414.56
2023-05-14T04:11:40.836Z,100420.59
2023-05-14T04:12:43.021Z,100418.78
2023-05-14T04:13:45.019Z,100425.13
2023-05-14T04:14:47.207Z,100424.41
2023-05-14T04:15:49.330Z,100421.84
2023-05-14T04:16:51.440Z,100428.78
2023-05-14T04:17:53.501Z,100421.84
2023-05-14T04:18:55.376Z,100423.47
2023-05-14T04:19:57.422Z,100424.41
2023-05-14T04:20:59.360Z,100418.16
2023-05-14T04:22:01.280Z,100420.75
2023-05-14T04:23:03.148Z,100419.72
2023-05-14T04:24:05.402Z,100421.41
2023-05-14T04:25:07.878Z,100428.59
2023-05-14T04:26:09.737Z,100422.28
2023-05-14T04:27:11.555Z,100433.72
2023-05-14T04:28:13.464Z,100420.59
2023-05-14T04:29:15.370Z,100427.47
2023-05-14T04:30:17.347Z,100433.09
2023-05-14T04:31:19.494Z,100431.44
2023-05-14T04:32:21.614Z,100429.56
2023-05-14T04:33:23.471Z,100434.09
2023-05-14T04:34:26.275Z,100439.47
2023-05-14T04:35:28.297Z,100437.94
2023-05-14T04:36:30.184Z,100435.28
2023-05-14T04:37:33.109Z,100440.41
2023-05-14T04:38:35.091Z,100435.09
2023-05-14T04:39:38.512Z,100438.50
2023-05-14T04:40:41.574Z,100440.97
2023-05-14T04:41:43.471Z,100440.13
2023-05-14T04:42:45.548Z,100435.75
2023-05-14T04:43:49.994Z,100440.03
2023-05-14T04:44:52.415Z,100441.50
2023-05-14T04:45:54.356Z,100432.63
2023-05-14T04:46:56.303Z,100435.03
2023-05-14T04:47:58.208Z,100434.78
2023-05-14T04:49:00.331Z,100428.34
2023-05-14T04:50:02.920Z,100438.84
2023-05-14T04:51:07.239Z,100433.63
2023-05-14T04:52:09.361Z,100435.19
2023-05-14T04:53:11.530Z,100445.56
2023-05-14T04:54:13.369Z,100435.75
2023-05-14T04:55:15.614Z,100433.81
2023-05-14T04:56:17.448Z,100444.31
2023-05-14T04:57:19.369Z,100431.78
2023-05-14T04:58:21.191Z,100434.31
2023-05-14T04:59:23.365Z,100437.19
2023-05-14T05:00:25.915Z,100440.81
2023-05-14T05:01:28.144Z,100434.66
2023-05-14T05:02:29.978Z,100445.06
2023-05-14T05:03:32.528Z,100440.47
2023-05-14T05:04:34.617Z,100447.38
2023-05-14T05:05:36.735Z,100442.72
2023-05-14T05:06:38.553Z,100446.16
2023-05-14T05:07:40.587Z,100443.41
2023-05-14T05:08:42.483Z,100447.13
2023-05-14T05:09:44.526Z,100445.44
2023-05-14T05:10:46.484Z,100438.34
2023-05-14T05:11:48.369Z,100439.16
2023-05-14T05:12:50.187Z,100439.91
2023-05-14T05:13:52.060Z,100441.31
2023-05-14T05:14:53.941Z,100439.25
2023-05-14T05:15:55.888Z,100442.63
2023-05-14T05:16:57.944Z,100442.63
2023-05-14T05:18:00.915Z,100440.63
2023-05-14T05:19:02.878Z,100442.41
2023-05-14T05:20:08.287Z,100446.88
2023-05-14T05:21:10.212Z,100443.38
2023-05-14T05:22:12.228Z,100446.03
2023-05-14T05:23:14.072Z,100452.09
2023-05-14T05:24:16.220Z,100444.00
2023-05-14T05:25:18.122Z,100451.81
2023-05-14T05:26:19.999Z,100448.22
2023-05-14T05:27:22.146Z,100444.63
2023-05-14T05:28:24.070Z,100450.84
2023-05-14T05:29:26.961Z,100447.25
2023-05-14T05:30:30.343Z,100455.13
2023-05-14T05:31:32.678Z,100456.84
2023-05-14T05:32:34.927Z,100456.72
2023-05-14T05:33:36.945Z,100453.91
2023-05-14T05:34:39.171Z,100449.59
2023-05-14T05:35:41.025Z,100446.91
2023-05-14T05:36:42.921Z,100455.63
2023-05-14T05:37:45.534Z,100450.25
2023-05-14T05:38:47.519Z,100453.72
2023-05-14T05:39:49.770Z,100457.16
2023-05-14T05:40:52.397Z,100449.91
2023-05-14T05:41:54.842Z,100449.69
2023-05-14T05:42:56.748Z,100447.72
2023-05-14T05:43:58.721Z,100451.16
2023-05-14T05:45:00.878Z,100454.56
2023-05-14T05:46:02.755Z,100450.81
2023-05-14T05:47:05.083Z,100452.56
2023-05-14T05:48:07.150Z,100447.25
2023-05-14T05:49:09.279Z,100452.47
2023-05-14T05:50:11.454Z,100454.16
2023-05-14T05:51:13.416Z,100452.97
2023-05-14T05:52:15.420Z,100454.28
2023-05-14T05:53:17.893Z,100456.31
2023-05-14T05:54:19.788Z,100451.47
2023-05-14T05:55:21.798Z,100456.38
2023-05-14T05:56:23.704Z,100448.94
2023-05-14T05:57:27.342Z,100457.41
2023-05-14T05:58:29.486Z,100458.88
2023-05-14T05:59:31.632Z,100463.06
2023-05-14T06:00:33.510Z,100457.59
2023-05-14T06:01:35.542Z,100461.25
2023-05-14T06:02:37.696Z,100461.75
2023-05-14T06:03:39.844Z,100456.81
2023-05-14T06:04:41.634Z,100453.31
2023-05-14T06:05:43.680Z,100458.81
2023-05-14T06:06:45.573Z,100450.91
2023-05-14T06:07:47.606Z,100456.97
2023-05-14T06:08:49.383Z,100459.66
2023-05-14T06:09:51.257Z,100461.25
2023-05-14T06:10:53.065Z,100456.16
2023-05-14T06:11:54.949Z,100450.09
2023-05-14T06:12:56.951Z,100450.09
2023-05-14T06:13:59.017Z,100458.97
2023-05-14T06:15:00.884Z,100454.53
2023-05-14T06:16:02.951Z,100454.41
2023-05-14T06:17:04.977Z,100460.50
2023-05-14T06:18:07.014Z,100459.50
2023-05-14T06:19:08.963Z,100456.66
2023-05-14T06:20:11.634Z,100462.53
2023-05-14T06:21:13.449Z,100459.59
2023-05-14T06:22:15.359Z,100458.59
2023-05-14T06:23:17.318Z,100454.91
2023-05-14T06:24:20.248Z,100456.53
2023-05-14T06:25:22.527Z,100459.88
2023-05-14T06:26:24.443Z,100461.69
2023-05-14T06:27:26.297Z,100453.63
2023-05-14T06:28:28.415Z,100455.34
2023-05-14T06:29:30.206Z,100467.75
2023-05-14T06:30:32.133Z,100461.63
2023-05-14T06:31:33.997Z,100462.53
2023-05-14T06:32:36.028Z,100465.28
2023-05-14T06:33:38.092Z,100465.16
2023-05-14T06:34:40.034Z,100464.94
2023-05-14T06:35:41.880Z,100463.91
2023-05-14T06:36:43.850Z,100464.75
2023-05-14T06:37:45.885Z,100459.34
2023-05-14T06:38:47.950Z,100464.34
2023-05-14T06:39:52.786Z,100456.88
2023-05-14T06:40:54.790Z,100462.81
2023-05-14T06:41:56.668Z,100463.25
2023-05-14T06:42:59.141Z,100463.69
2023-05-14T06:44:01.010Z,100465.16
2023-05-14T06:45:03.060Z,100464.88
2023-05-14T06:46:07.201Z,100467.19
2023-05-14T06:47:09.257Z,100465.47
2023-05-14T06:48:11.351Z,100461.00
2023-05-14T06:49:13.420Z,100463.50
2023-05-14T06:50:15.365Z,100457.06
2023-05-14T06:51:17.344Z,100460.38
2023-05-14T06:52:19.325Z,100462.06
2023-05-14T06:53:21.557Z,100464.88
2023-05-14T06:54:23.571Z,100459.44
2023-05-14T06:55:25.653Z,100452.97
2023-05-14T06:56:27.476Z,100465.16
2023-05-14T06:57:29.483Z,100463.78
2023-05-14T06:58:31.361Z,100457.34
2023-05-14T06:59:33.536Z,100467.59
2023-05-14T07:00:35.737Z,100471.00
2023-05-14T07:01:37.704Z,100461.47
2023-05-14T07:02:39.542Z,100463.03
2023-05-14T07:03:41.740Z,100466.28
2023-05-14T07:04:43.649Z,100469.09
2023-05-14T07:05:46.844Z,100475.66
2023-05-14T07:06:48.741Z,100465.97
2023-05-14T07:07:50.673Z,100475.59
2023-05-14T07:08:53.505Z,100476.22
2023-05-14T07:09:55.446Z,100475.91
2023-05-14T07:10:57.550Z,100470.38
2023-05-14T07:11:59.604Z,100476.81
2023-05-14T07:13:01.516Z,100480.19
2023-05-14T07:14:03.745Z,100479.94
2023-05-14T07:15:06.252Z,100481.06
2023-05-14T07:16:11.912Z,100480.25
2023-05-14T07:17:13.986Z,100483.78
2023-05-14T07:18:16.065Z,100482.06
2023-05-14T07:19:18.068Z,100479.41
2023-05-14T07:20:20.043Z,100481.00
2023-05-14T07:21:22.015Z,100486.19
2023-05-14T07:22:23.954Z,100479.19
2023-05-14T07:23:25.874Z,100484.38
2023-05-14T07:24:27.965Z,100485.16
2023-05-14T07:25:29.863Z,100489.47
2023-05-14T07:26:31.919Z,100491.78
2023-05-14T07:27:33.892Z,100496.03
2023-05-14T07:28:36.035Z,100498.34
2023-05-14T07:29:38.179Z,100493.53
2023-05-14T07:30:40.108Z,100487.81
2023-05-14T07:31:42.041Z,100491.66
2023-05-14T07:32:44.195Z,100492.16
2023-05-14T07:33:46.175Z,100495.81
2023-05-14T07:34:48.932Z,100494.97
2023-05-14T07:35:51.023Z,100494.97
2023-05-14T07:36:53.358Z,100502.13
2023-05-14T07:37:55.203Z,100501.44
2023-05-14T07:38:57.432Z,100487.72
2023-05-14T07:39:59.325Z,100491.34
2023-05-14T07:41:01.312Z,100504.38
2023-05-14T07:42:03.377Z,100497.78
2023-05-14T07:43:05.447Z,100507.81
2023-05-14T07:44:07.332Z,100493.75
2023-05-14T07:45:09.986Z,100501.03
2023-05-14T07:46:11.801Z,100497.78
2023-05-14T07:47:13.906Z,100509.47
2023-05-14T07:48:15.983Z,100510.63
2023-05-14T07:49:17.961Z,100506.25
2023-05-14T07:50:19.816Z,100503.53
2023-05-14T07:51:21.807Z,100508.63
2023-05-14T07:52:24.472Z,100510.50
2023-05-14T07:53:26.460Z,100504.44
2023-05-14T07:54:28.243Z,100504.59
2023-05-14T07:55:30.235Z,100501.00
2023-05-14T07:56:32.093Z,100507.06
2023-05-14T07:57:33.989Z,100507.09
2023-05-14T07:58:36.203Z,100505.28
2023-05-14T07:59:38.090Z,100514.19
2023-05-14T08:00:40.220Z,100504.22
2023-05-14T08:01:42.146Z,100506.66
2023-05-14T08:02:44.538Z,100503.53
2023-05-14T08:03:47.078Z,100503.03
2023-05-14T08:04:49.226Z,100509.63
2023-05-14T08:05:52.640Z,100501.19
2023-05-14T08:06:55.572Z,100509.59
2023-05-14T08:07:57.510Z,100500.31
2023-05-14T08:08:59.385Z,100502.72
2023-05-14T08:10:01.609Z,100507.44
2023-05-14T08:11:04.036Z,100505.59
2023-05-14T08:12:06.755Z,100511.91
2023-05-14T08:13:08.587Z,100494.75
2023-05-14T08:14:10.486Z,100503.88
2023-05-14T08:15:12.640Z,100502.84
2023-05-14T08:16:14.754Z,100508.63
2023-05-14T08:17:16.878Z,100507.22
2023-05-14T08:18:18.923Z,100500.53
2023-05-14T08:19:20.824Z,100502.13
2023-05-14T08:20:23.369Z,100500.13
2023-05-14T08:21:25.328Z,100501.16
2023-05-14T08:22:27.303Z,100500.00
2023-05-14T08:23:29.086Z,100497.94
2023-05-14T08:24:31.152Z,100489.34
2023-05-14T08:25:33.658Z,100496.66
2023-05-14T08:26:36.013Z,100495.00
2023-05-14T08:27:37.975Z,100496.34
2023-05-14T08:28:39.953Z,100495.84
2023-05-14T08:29:41.761Z,100502.16
2023-05-14T08:30:43.737Z,100503.16
2023-05-14T08:31:45.716Z,100498.94
2023-05-14T08:32:47.637Z,100490.13
2023-05-14T08:33:49.547Z,100501.44
2023-05-14T08:34:52.083Z,100495.19
2023-05-14T08:35:54.779Z,100502.31
2023-05-14T08:36:56.727Z,100491.75
2023-05-14T08:37:58.650Z,100491.28
2023-05-14T08:39:00.775Z,100494.72
2023-05-14T08:40:02.695Z,100497.53
2023-05-14T08:41:08.737Z,100492.41
2023-05-14T08:42:13.266Z,100492.69
2023-05-14T08:43:21.169Z,100500.56
2023-05-14T08:44:36.402Z,100487.63
2023-05-14T08:45:40.116Z,100492.50
2023-05-14T08:46:42.323Z,100491.84
2023-05-14T08:47:49.088Z,100495.41
2023-05-14T08:49:04.312Z,100493.94
2023-05-14T08:50:08.439Z,100495.09
2023-05-14T08:51:10.795Z,100491.97
2023-05-14T08:52:13.358Z,100497.50
2023-05-14T08:53:15.326Z,100500.50
2023-05-14T08:54:18.201Z,100499.91
2023-05-14T08:55:20.226Z,100493.00
2023-05-14T08:56:25.767Z,100494.34
2023-05-14T08:57:30.434Z,100492.19
2023-05-14T08:58:32.468Z,100497.06
2023-05-14T08:59:34.461Z,100490.84
2023-05-14T09:00:36.423Z,100499.84
2023-05-14T09:01:39.933Z,100491.56
2023-05-14T09:02:44.766Z,100491.31
2023-05-14T09:03:48.147Z,100492.06
2023-05-14T09:04:56.169Z,100493.31
2023-05-14T09:06:00.262Z,100493.91
2023-05-14T09:07:02.897Z,100489.22
2023-05-14T09:08:04.811Z,100495.03
2023-05-14T09:09:07.227Z,100492.47
2023-05-14T09:10:10.408Z,100490.94
2023-05-14T09:11:12.623Z,100496.94
2023-05-14T09:12:14.764Z,100492.44
2023-05-14T09:13:16.850Z,100488.28
2023-05-14T09:14:19.030Z,100488.22
2023-05-14T09:15:21.056Z,100497.38
2023-05-14T09:16:25.977Z,100496.09
2023-05-14T09:17:28.292Z,100486.28
2023-05-14T09:18:30.355Z,100493.28
2023-05-14T09:19:32.926Z,100493.69
2023-05-14T09:20:34.828Z,100495.03
2023-05-14T09:21:37.823Z,100497.25
2023-05-14T09:22:40.059Z,100501.41
2023-05-14T09:23:44.536Z,100504.09
2023-05-14T09:24:46.669Z,100504.59
2023-05-14T09:25:48.873Z,100508.69
2023-05-14T09:26:53.082Z,100508.84
2023-05-14T09:27:57.312Z,100493.28
2023-05-14T09:29:05.172Z,100508.34
2023-05-14T09:30:08.283Z,100515.16
2023-05-14T09:31:10.235Z,100510.84
2023-05-14T09:32:12.376Z,100508.88
2023-05-14T09:33:27.435Z,100526.50
2023-05-14T09:34:31.506Z,100519.19
2023-05-14T09:35:33.518Z,100520.06
2023-05-14T09:36:35.610Z,100525.88
2023-05-14T09:37:37.530Z,100524.78
2023-05-14T09:38:39.664Z,100523.56
2023-05-14T09:39:41.495Z,100524.25
2023-05-14T09:40:43.531Z,100527.97
2023-05-14T09:41:45.347Z,100528.38
2023-05-14T09:42:49.215Z,100524.19
2023-05-14T09:43:51.867Z,100527.19
2023-05-14T09:44:53.995Z,100537.19
2023-05-14T09:45:55.975Z,100532.94
2023-05-14T09:46:57.923Z,100540.25
2023-05-14T09:48:01.467Z,100540.25
2023-05-14T09:49:04.031Z,100534.09
2023-05-14T09:50:06.866Z,100541.22
2023-05-14T09:51:10.502Z,100531.44
2023-05-14T09:52:12.373Z,100535.97
2023-05-14T09:53:14.786Z,100541.31
2023-05-14T09:54:16.892Z,100541.19
2023-05-14T09:55:20.598Z,100534.91
2023-05-14T09:56:22.957Z,100549.78
2023-05-14T09:57:24.974Z,100548.03
2023-05-14T09:58:26.924Z,100543.72
2023-05-14T09:59:28.914Z,100541.97
2023-05-14T10:00:34.898Z,100544.09
2023-05-14T10:01:39.053Z,100541.63
2023-05-14T10:02:43.056Z,100538.34
2023-05-14T10:03:45.861Z,100546.34
2023-05-14T10:04:50.463Z,100545.50
2023-05-14T10:05:53.496Z,100542.19
2023-05-14T10:06:56.786Z,100551.81
2023-05-14T10:08:01.805Z,100548.06
2023-05-14T10:09:05.885Z,100550.47
2023-05-14T10:10:11.718Z,100547.56
2023-05-14T10:11:15.792Z,100550.91
2023-05-14T10:12:22.715Z,100560.22
2023-05-14T10:13:31.739Z,100559.09
2023-05-14T10:14:41.389Z,100560.38
2023-05-14T10:15:48.389Z,100560.94
2023-05-14T10:16:51.706Z,100564.19
2023-05-14T10:17:59.076Z,100550.72
2023-05-14T10:19:28.273Z,100556.28
2023-05-14T10:20:31.532Z,100558.81
2023-05-14T10:21:36.186Z,100553.59
2023-05-14T10:22:38.323Z,100556.31
2023-05-14T10:23:41.923Z,100565.44
2023-05-14T10:24:44.133Z,100566.44
2023-05-14T10:25:46.460Z,100557.59
2023-05-14T10:26:49.129Z,100570.06
2023-05-14T10:27:51.241Z,100562.78
2023-05-14T10:28:53.733Z,100566.19
2023-05-14T10:29:56.425Z,100571.31
2023-05-14T10:31:00.881Z,100565.72
2023-05-14T10:32:09.969Z,100574.59
2023-05-14T10:33:15.638Z,100570.78
2023-05-14T10:34:46.552Z,100570.22
2023-05-14T10:36:07.276Z,100584.94
2023-05-14T10:37:15.053Z,100581.34
2023-05-14T10:38:17.160Z,100574.41
2023-05-14T10:39:19.102Z,100571.59
2023-05-14T10:40:25.121Z,100581.38
2023-05-14T10:41:27.273Z,100572.53
2023-05-14T10:42:43.675Z,100581.47
2023-05-14T10:43:45.703Z,100577.72
2023-05-14T10:44:58.594Z,100566.41
2023-05-14T10:46:01.318Z,100578.28
2023-05-14T10:47:03.832Z,100578.28
2023-05-14T10:48:06.227Z,100581.13
2023-05-14T10:49:08.138Z,100582.00
2023-05-14T10:50:15.411Z,100580.13
2023-05-14T10:51:19.827Z,100581.03
2023-05-14T10:52:22.605Z,100589.91
2023-05-14T10:53:44.890Z,100587.22
2023-05-14T10:54:54.666Z,100581.03
2023-05-14T10:55:56.646Z,100585.56
2023-05-14T10:57:01.377Z,100583.97
2023-05-14T10:58:04.924Z,100585.94
2023-05-14T10:59:06.909Z,100587.88
2023-05-14T11:00:09.332Z,100582.84
2023-05-14T11:01:13.529Z,100593.47
2023-05-14T11:02:23.434Z,100588.00
2023-05-14T11:03:30.424Z,100588.00
2023-05-14T11:04:32.421Z,100586.88
2023-05-14T11:05:37.410Z,100589.31
2023-05-14T11:06:39.904Z,100589.28
2023-05-14T11:07:46.414Z,100589.28
2023-05-14T11:08:51.292Z,100591.84
2023-05-14T11:09:54.060Z,100586.59
2023-05-14T11:10:56.376Z,100583.00
2023-05-14T11:11:58.635Z,100588.31
2023-05-14T11:13:00.782Z,100590.81
2023-05-14T11:14:02.776Z,100594.38
2023-05-14T11:15:09.433Z,100585.34
2023-05-14T11:16:22.543Z,100590.56
2023-05-14T11:17:29.829Z,100587.81
2023-05-14T11:18:36.935Z,100586.94
2023-05-14T11:19:38.757Z,100585.13
2023-05-14T11:20:41.028Z,100590.66
2023-05-14T11:21:43.181Z,100588.19
2023-05-14T11:22:46.732Z,100589.19
2023-05-14T11:23:48.914Z,100594.53
2023-05-14T11:24:51.303Z,100592.94
2023-05-14T11:25:54.310Z,100591.19
2023-05-14T11:26:56.669Z,100588.47
2023-05-14T11:28:00.850Z,100586.75
2023-05-14T11:29:02.941Z,100587.50
2023-05-14T11:30:05.428Z,100589.28
2023-05-14T11:31:10.850Z,100588.47
2023-05-14T11:32:14.212Z,100595.47
2023-05-14T11:33:16.909Z,100591.03
2023-05-14T11:34:18.848Z,100592.66
2023-05-14T11:35:20.904Z,100593.47
2023-05-14T11:36:23.087Z,100599.63
2023-05-14T11:37:25.147Z,100591.56
2023-05-14T11:38:27.164Z,100594.88
2023-05-14T11:39:29.305Z,100597.63
2023-05-14T11:40:31.269Z,100602.88
2023-05-14T11:41:33.358Z,100594.81
2023-05-14T11:42:36.969Z,100595.63
2023-05-14T11:43:39.030Z,100590.28
2023-05-14T11:44:42.401Z,100597.06
2023-05-14T11:45:50.771Z,100607.66
2023-05-14T11:46:59.006Z,100580.78
2023-05-14T11:48:01.190Z,100600.28
2023-05-14T11:49:09.668Z,100601.03
2023-05-14T11:50:11.681Z,100593.84
2023-05-14T11:51:13.562Z,100597.59
2023-05-14T11:52:16.765Z,100592.13
2023-05-14T11:53:29.717Z,100596.66
2023-05-14T11:54:33.254Z,100601.19
2023-05-14T11:55:36.472Z,100596.66
2023-05-14T11:56:38.337Z,100602.00
2023-05-14T11:57:41.333Z,100603.06
2023-05-14T11:58:48.814Z,100598.66
2023-05-14T11:59:59.059Z,100596.22
2023-05-14T12:01:01.145Z,100595.34
2023-05-14T12:02:05.349Z,100602.53